Terminal Aerodrome Forecast
Issued by NWS Twin Cities, MN

Home | Current Version | Previous Version | Graphics & Text | Print | Product List | Glossary On
Versions: 1 2 3 4 5 6 7 8 9 10 11 12 13 14 15 16 17 18 19 20 21 22 23 24 25 26 27
000
FTUS43 KMPX 311445 AAA
TAFMSP
TAF AMD
KMSP 311445Z 3114/0118 29005KT P6SM SKC
     FM311700 30010G16KT P6SM SCT090
     FM312200 31008KT P6SM BKN090
     FM010200 07006KT P6SM SCT090 BKN250
     FM010500 12009KT P6SM BKN250=

USA.gov is the U.S. government's official web portal to all federal, state and local government web resources and services.